createdAt,value
2023-02-16T00:01:55.927Z,199.38
2023-02-16T00:04:26.772Z,200.48
2023-02-16T00:06:55.634Z,198.23
2023-02-16T00:09:25.928Z,201.48
2023-02-16T00:12:12.377Z,204.98
2023-02-16T00:14:41.384Z,199.55
2023-02-16T00:17:12.468Z,200.95
2023-02-16T00:19:42.834Z,201.07
2023-02-16T00:22:11.637Z,199.70
2023-02-16T00:24:41.030Z,189.88
2023-02-16T00:27:18.414Z,200.45
2023-02-16T00:29:46.634Z,196.23
2023-02-16T00:32:15.525Z,191.18
2023-02-16T00:34:46.168Z,194.27
2023-02-16T00:37:15.377Z,197.23
2023-02-16T00:39:45.897Z,196.73
2023-02-16T00:42:20.256Z,197.95
2023-02-16T00:44:50.548Z,202.10
2023-02-16T00:47:22.184Z,197.63
2023-02-16T00:49:52.447Z,202.35
2023-02-16T00:52:35.405Z,201.48
2023-02-16T00:55:08.798Z,199.60
2023-02-16T00:57:42.145Z,200.93
2023-02-16T01:00:20.305Z,200.93
2023-02-16T01:02:51.901Z,193.10
2023-02-16T01:05:22.281Z,188.05
2023-02-16T01:08:08.015Z,197.73
2023-02-16T01:10:56.675Z,198.20
2023-02-16T01:13:25.884Z,186.30
2023-02-16T01:15:53.932Z,189.57
2023-02-16T01:18:22.939Z,186.77
2023-02-16T01:20:52.758Z,190.10
2023-02-16T01:23:21.022Z,190.80
2023-02-16T01:25:50.432Z,192.48
2023-02-16T01:28:22.485Z,186.35
2023-02-16T01:30:51.668Z,194.73
2023-02-16T01:33:20.848Z,187.70
2023-02-16T01:35:50.161Z,189.35
2023-02-16T01:38:21.377Z,192.75
2023-02-16T01:41:02.245Z,195.10
2023-02-16T01:43:45.430Z,198.50
2023-02-16T01:46:19.077Z,194.73
2023-02-16T01:48:47.479Z,192.57
2023-02-16T01:51:23.155Z,199.05
2023-02-16T01:53:55.056Z,195.80
2023-02-16T01:56:36.830Z,196.05
2023-02-16T01:59:12.991Z,195.00
2023-02-16T02:01:45.654Z,199.05
2023-02-16T02:04:43.972Z,191.30
2023-02-16T02:07:20.578Z,190.05
2023-02-16T02:10:00.301Z,194.90
2023-02-16T02:12:38.564Z,198.70
2023-02-16T02:15:09.420Z,195.00
2023-02-16T02:17:38.125Z,199.98
2023-02-16T02:20:16.858Z,195.55
2023-02-16T02:23:33.959Z,196.48
2023-02-16T02:26:58.545Z,197.55
2023-02-16T02:29:53.110Z,199.23
2023-02-16T02:32:34.249Z,199.07
2023-02-16T02:35:20.183Z,199.60
2023-02-16T02:37:57.538Z,202.35
2023-02-16T02:40:41.047Z,199.68
2023-02-16T02:43:17.016Z,199.07
2023-02-16T02:45:53.251Z,204.23
2023-02-16T02:48:21.354Z,203.05
2023-02-16T02:51:11.278Z,199.00
2023-02-16T02:53:45.330Z,200.63
2023-02-16T02:56:34.464Z,200.18
2023-02-16T02:59:26.936Z,201.98
2023-02-16T03:02:01.885Z,201.15
2023-02-16T03:04:32.154Z,199.35
2023-02-16T03:07:03.782Z,196.95
2023-02-16T03:09:31.995Z,195.37
2023-02-16T03:12:31.759Z,197.57
2023-02-16T03:15:03.640Z,209.20
2023-02-16T03:17:54.337Z,205.23
2023-02-16T03:20:40.699Z,206.05
2023-02-16T03:23:27.339Z,201.23
2023-02-16T03:26:13.631Z,200.43
2023-02-16T03:29:03.566Z,204.32
2023-02-16T03:31:38.425Z,202.02
2023-02-16T03:34:07.733Z,201.75
2023-02-16T03:36:39.643Z,218.55
2023-02-16T03:39:08.835Z,207.20
2023-02-16T03:41:43.060Z,209.68
2023-02-16T03:44:11.696Z,200.35
2023-02-16T03:46:41.561Z,207.02
2023-02-16T03:49:10.393Z,203.68
2023-02-16T03:51:38.646Z,202.38
2023-02-16T03:54:06.819Z,204.13
2023-02-16T03:56:35.178Z,204.80
2023-02-16T03:59:03.545Z,207.45
2023-02-16T04:01:31.591Z,208.27
2023-02-16T04:04:00.888Z,206.75
2023-02-16T04:06:28.955Z,208.85
2023-02-16T04:08:56.898Z,213.68
2023-02-16T04:11:42.216Z,212.18
2023-02-16T04:14:10.179Z,210.98
2023-02-16T04:16:38.709Z,209.95
2023-02-16T04:19:08.105Z,208.20
2023-02-16T04:21:36.610Z,206.68
2023-02-16T04:24:05.720Z,213.48
2023-02-16T04:26:34.191Z,225.75
2023-02-16T04:29:02.259Z,211.25
2023-02-16T04:31:30.447Z,210.63
2023-02-16T04:33:58.878Z,211.65
2023-02-16T04:36:28.139Z,196.45
2023-02-16T04:38:56.059Z,201.50
2023-02-16T04:41:24.216Z,206.02
2023-02-16T04:43:52.209Z,207.07
2023-02-16T04:46:20.209Z,204.50
2023-02-16T04:48:48.246Z,210.75
2023-02-16T04:51:16.386Z,212.57
2023-02-16T04:53:45.729Z,212.20
2023-02-16T04:56:14.470Z,211.57
2023-02-16T04:58:43.439Z,216.38
2023-02-16T05:01:20.432Z,217.00
2023-02-16T05:03:49.119Z,214.88
2023-02-16T05:06:17.381Z,206.98
2023-02-16T05:08:47.903Z,205.57
2023-02-16T05:11:33.462Z,206.15
2023-02-16T05:14:19.440Z,206.60
2023-02-16T05:16:47.991Z,208.13
2023-02-16T05:19:16.404Z,205.63
2023-02-16T05:21:44.473Z,205.38
2023-02-16T05:24:13.839Z,205.27
2023-02-16T05:26:41.885Z,204.90
2023-02-16T05:29:10.276Z,202.35
2023-02-16T05:31:38.483Z,203.57
2023-02-16T05:34:06.567Z,205.02
2023-02-16T05:36:34.755Z,204.82
2023-02-16T05:39:02.717Z,199.80
2023-02-16T05:41:32.004Z,202.27
2023-02-16T05:44:10.444Z,202.50
2023-02-16T05:46:46.435Z,205.38
2023-02-16T05:49:18.233Z,204.90
2023-02-16T05:51:47.578Z,214.40
2023-02-16T05:54:17.997Z,208.70
2023-02-16T05:56:51.301Z,210.20
2023-02-16T05:59:20.036Z,213.45
2023-02-16T06:01:51.973Z,213.52
2023-02-16T06:04:22.258Z,206.63
2023-02-16T06:06:51.304Z,210.35
2023-02-16T06:09:20.867Z,210.93
2023-02-16T06:11:50.807Z,214.80
2023-02-16T06:14:21.728Z,210.95
2023-02-16T06:16:51.974Z,212.05
2023-02-16T06:19:21.394Z,218.40
2023-02-16T06:21:51.261Z,223.23
2023-02-16T06:24:19.832Z,219.38
2023-02-16T06:26:48.354Z,209.27
2023-02-16T06:29:17.746Z,209.32
2023-02-16T06:31:48.530Z,213.65
2023-02-16T06:34:16.816Z,213.52
2023-02-16T06:36:45.066Z,207.27
2023-02-16T06:39:13.830Z,213.10
2023-02-16T06:41:42.521Z,209.93
2023-02-16T06:44:13.650Z,220.00
2023-02-16T06:46:44.753Z,218.40
2023-02-16T06:49:14.177Z,217.10
2023-02-16T06:51:42.890Z,217.85
2023-02-16T06:54:12.115Z,215.85
2023-02-16T06:56:41.699Z,216.93
2023-02-16T06:59:11.873Z,215.43
2023-02-16T07:01:44.164Z,223.80
2023-02-16T07:04:14.218Z,220.77
2023-02-16T07:06:43.604Z,217.82
2023-02-16T07:09:12.972Z,220.85
2023-02-16T07:11:42.146Z,213.68
2023-02-16T07:14:10.768Z,215.73
2023-02-16T07:16:39.469Z,219.48
2023-02-16T07:19:11.416Z,221.38
2023-02-16T07:21:39.809Z,225.85
2023-02-16T07:24:08.950Z,217.40
2023-02-16T07:26:38.789Z,224.77
2023-02-16T07:29:07.342Z,223.40
2023-02-16T07:31:35.957Z,218.63
2023-02-16T07:34:04.488Z,229.63
2023-02-16T07:36:34.341Z,232.98
2023-02-16T07:39:02.973Z,234.48
2023-02-16T07:41:32.288Z,240.23
2023-02-16T07:44:08.974Z,235.02
2023-02-16T07:46:37.240Z,223.40
2023-02-16T07:49:06.509Z,223.32
2023-02-16T07:51:36.232Z,227.75
2023-02-16T07:54:05.089Z,228.88
2023-02-16T07:56:35.967Z,232.80
2023-02-16T07:59:05.628Z,239.68
2023-02-16T08:01:35.302Z,236.23
2023-02-16T08:04:03.866Z,257.33
2023-02-16T08:06:32.463Z,239.18
2023-02-16T08:09:01.948Z,238.50
2023-02-16T08:11:30.467Z,242.15
2023-02-16T08:14:01.484Z,245.20
2023-02-16T08:16:31.101Z,243.50
2023-02-16T08:19:01.800Z,243.60
2023-02-16T08:21:32.864Z,243.90
2023-02-16T08:24:05.217Z,247.35
2023-02-16T08:26:38.682Z,252.35
2023-02-16T08:29:13.094Z,245.52
2023-02-16T08:31:42.338Z,239.85
2023-02-16T08:34:12.022Z,247.98
2023-02-16T08:36:42.803Z,232.30
2023-02-16T08:39:18.668Z,239.90
2023-02-16T08:41:48.850Z,231.38
2023-02-16T08:44:18.935Z,229.02
2023-02-16T08:46:49.703Z,234.85
2023-02-16T08:49:22.200Z,229.95
2023-02-16T08:51:54.935Z,231.43
2023-02-16T08:54:27.125Z,232.68
2023-02-16T08:59:28.472Z,233.23
2023-02-16T09:02:00.490Z,246.48
2023-02-16T09:04:29.960Z,236.50
2023-02-16T09:06:59.977Z,239.07
2023-02-16T09:09:29.884Z,234.95
2023-02-16T09:11:58.973Z,248.38
2023-02-16T09:14:28.030Z,244.07
2023-02-16T09:16:58.127Z,247.82
2023-02-16T09:19:28.238Z,237.82
2023-02-16T09:21:57.878Z,244.07
2023-02-16T09:24:51.093Z,246.63
2023-02-16T09:27:21.785Z,239.38
2023-02-16T09:29:58.712Z,240.95
2023-02-16T09:32:30.106Z,237.60
2023-02-16T09:34:58.915Z,249.75
2023-02-16T09:37:30.248Z,248.20
2023-02-16T09:39:58.787Z,247.93
2023-02-16T09:42:34.915Z,247.38
2023-02-16T09:45:11.643Z,241.13
2023-02-16T09:47:43.138Z,270.40
2023-02-16T09:50:27.763Z,247.68
2023-02-16T09:53:17.035Z,266.55
2023-02-16T09:55:59.696Z,260.88
2023-02-16T09:58:40.383Z,244.60
2023-02-16T10:01:18.275Z,237.85
2023-02-16T10:03:59.523Z,241.02
2023-02-16T10:06:48.426Z,247.32
2023-02-16T10:09:20.789Z,243.93
2023-02-16T10:11:54.594Z,240.05
2023-02-16T10:14:42.376Z,241.63
2023-02-16T10:17:22.186Z,242.02
2023-02-16T10:19:55.416Z,241.95
2023-02-16T10:22:32.399Z,234.43
2023-02-16T10:25:03.931Z,242.68
2023-02-16T10:27:39.667Z,238.13
2023-02-16T10:30:16.536Z,244.18
2023-02-16T10:32:56.439Z,237.73
2023-02-16T10:35:39.700Z,240.98
2023-02-16T10:38:18.177Z,235.25
2023-02-16T10:40:56.796Z,237.50
2023-02-16T10:43:40.652Z,243.82
2023-02-16T10:46:13.531Z,236.98
2023-02-16T10:48:41.642Z,233.93
2023-02-16T10:51:13.795Z,247.77
2023-02-16T10:56:42.556Z,241.20
2023-02-16T10:59:18.939Z,244.13
2023-02-16T11:01:52.276Z,242.30
2023-02-16T11:04:39.931Z,240.18
2023-02-16T11:07:12.238Z,230.85
2023-02-16T11:09:43.323Z,233.95
2023-02-16T11:12:27.894Z,228.77
2023-02-16T11:15:01.135Z,243.98
2023-02-16T11:17:32.971Z,235.25
2023-02-16T11:20:06.969Z,227.93
2023-02-16T11:22:37.738Z,240.00
2023-02-16T11:25:22.098Z,243.80
2023-02-16T11:27:56.991Z,240.38
2023-02-16T11:30:33.906Z,241.73
2023-02-16T11:33:07.198Z,238.05
2023-02-16T11:35:44.522Z,248.02
2023-02-16T11:38:31.408Z,238.10
2023-02-16T11:41:04.813Z,246.40
2023-02-16T11:43:38.602Z,249.30
2023-02-16T11:46:19.407Z,241.40
2023-02-16T11:48:48.847Z,225.73
2023-02-16T11:51:31.877Z,251.35
2023-02-16T11:54:08.136Z,234.18
2023-02-16T11:56:37.415Z,237.40
2023-02-16T11:59:13.865Z,232.13
2023-02-16T12:01:59.199Z,232.10
2023-02-16T12:04:48.988Z,238.15
2023-02-16T12:07:29.608Z,230.27
2023-02-16T12:10:10.490Z,240.40
2023-02-16T12:12:52.121Z,250.45
2023-02-16T12:15:27.786Z,242.63
2023-02-16T12:18:25.914Z,234.38
2023-02-16T12:21:03.656Z,237.30
2023-02-16T12:23:41.034Z,228.30
2023-02-16T12:26:31.782Z,218.75
2023-02-16T12:29:16.804Z,226.05
2023-02-16T12:32:15.985Z,220.85
2023-02-16T12:35:09.506Z,217.35
2023-02-16T12:37:47.677Z,219.23
2023-02-16T12:40:33.413Z,224.52
2023-02-16T12:43:20.756Z,225.90
2023-02-16T12:45:51.113Z,223.80
2023-02-16T12:48:37.395Z,224.98
2023-02-16T12:51:13.843Z,220.90
2023-02-16T12:53:51.926Z,227.35
2023-02-16T12:56:25.809Z,227.45
2023-02-16T12:59:06.621Z,226.77
2023-02-16T13:01:36.913Z,244.20
2023-02-16T13:04:17.661Z,220.20
2023-02-16T13:06:55.834Z,223.15
2023-02-16T13:09:38.465Z,224.18
2023-02-16T13:12:17.498Z,225.30
2023-02-16T13:14:54.092Z,216.60
2023-02-16T13:17:32.807Z,215.50
2023-02-16T13:20:02.678Z,220.18
2023-02-16T13:23:12.957Z,216.70
2023-02-16T13:26:17.903Z,218.23
2023-02-16T13:29:10.631Z,221.32
2023-02-16T13:31:57.282Z,208.55
2023-02-16T13:34:55.613Z,221.00
2023-02-16T13:37:45.943Z,212.40
2023-02-16T13:41:04.477Z,214.75
2023-02-16T13:43:35.658Z,210.98
2023-02-16T13:46:08.607Z,216.63
2023-02-16T13:48:46.984Z,206.88
2023-02-16T13:51:18.595Z,205.65
2023-02-16T13:53:55.461Z,212.23
2023-02-16T13:56:36.143Z,211.75
2023-02-16T14:00:07.553Z,215.07
2023-02-16T14:03:00.984Z,208.82
2023-02-16T14:05:39.542Z,218.57
2023-02-16T14:08:29.557Z,219.45
2023-02-16T14:11:11.403Z,214.23
2023-02-16T14:13:50.327Z,216.95
2023-02-16T14:16:34.400Z,208.32
2023-02-16T14:19:17.821Z,219.50
2023-02-16T14:21:48.685Z,204.35
2023-02-16T14:24:33.267Z,208.85
2023-02-16T14:27:03.989Z,210.00
2023-02-16T14:29:36.224Z,214.90
2023-02-16T14:32:21.720Z,226.30
2023-02-16T14:34:57.692Z,218.88
2023-02-16T14:37:34.733Z,209.88
2023-02-16T14:40:21.086Z,214.82
2023-02-16T14:42:57.122Z,216.55
2023-02-16T14:46:19.602Z,215.15
2023-02-16T14:49:21.577Z,215.70
2023-02-16T14:52:40.973Z,221.20
2023-02-16T14:56:07.950Z,207.82
2023-02-16T14:58:47.872Z,212.02
2023-02-16T15:01:19.223Z,211.55
2023-02-16T15:03:50.501Z,209.52
2023-02-16T15:06:29.240Z,211.13
2023-02-16T15:09:01.793Z,208.75
2023-02-16T15:11:35.550Z,206.05
2023-02-16T15:14:08.556Z,211.23
2023-02-16T15:16:41.761Z,203.57
2023-02-16T15:19:23.078Z,206.40
2023-02-16T15:22:10.256Z,205.77
2023-02-16T15:24:39.049Z,201.95
2023-02-16T15:27:07.451Z,198.88
2023-02-16T15:29:35.972Z,204.73
2023-02-16T15:32:08.800Z,205.73
2023-02-16T15:34:39.433Z,200.00
2023-02-16T15:37:32.552Z,202.57
2023-02-16T15:40:25.439Z,202.27
2023-02-16T15:42:56.892Z,207.32
2023-02-16T15:45:32.506Z,203.48
2023-02-16T15:48:33.666Z,207.77
2023-02-16T15:51:12.278Z,203.93
2023-02-16T15:53:51.378Z,204.13
2023-02-16T15:56:34.601Z,208.00
2023-02-16T15:59:06.422Z,220.75
2023-02-16T16:01:36.418Z,207.48
2023-02-16T16:04:09.153Z,215.00
2023-02-16T16:06:40.942Z,205.65
2023-02-16T16:09:22.488Z,207.70
2023-02-16T16:11:51.850Z,207.75
2023-02-16T16:14:20.752Z,201.27
2023-02-16T16:16:49.240Z,204.68
2023-02-16T16:19:21.745Z,202.25
2023-02-16T16:21:54.276Z,201.90
2023-02-16T16:24:38.834Z,202.43
2023-02-16T16:27:10.142Z,203.93
2023-02-16T16:29:42.461Z,207.57
2023-02-16T16:32:21.191Z,205.75
2023-02-16T16:34:50.202Z,204.88
2023-02-16T16:37:28.322Z,207.43
2023-02-16T16:40:06.487Z,203.60
2023-02-16T16:42:39.006Z,206.07
2023-02-16T16:45:31.611Z,203.73
2023-02-16T16:48:00.230Z,221.77
2023-02-16T16:50:37.718Z,205.68
2023-02-16T16:53:40.863Z,208.15
2023-02-16T16:56:14.145Z,199.05
2023-02-16T16:58:42.554Z,202.00
2023-02-16T17:01:13.440Z,203.18
2023-02-16T17:03:41.696Z,201.45
2023-02-16T17:06:10.396Z,200.85
2023-02-16T17:08:38.643Z,195.20
2023-02-16T17:11:09.721Z,197.38
2023-02-16T17:13:39.076Z,204.93
2023-02-16T17:16:11.484Z,210.60
2023-02-16T17:18:39.743Z,221.30
2023-02-16T17:21:07.828Z,208.32
2023-02-16T17:23:36.313Z,214.80
2023-02-16T17:26:04.912Z,202.13
2023-02-16T17:28:36.707Z,207.73
2023-02-16T17:31:09.052Z,218.80
2023-02-16T17:33:37.437Z,209.13
2023-02-16T17:36:07.909Z,205.63
2023-02-16T17:38:35.951Z,205.95
2023-02-16T17:41:03.971Z,208.55
2023-02-16T17:43:31.881Z,202.93
2023-02-16T17:46:05.123Z,207.52
2023-02-16T17:48:34.670Z,205.00
2023-02-16T17:51:03.103Z,206.27
2023-02-16T17:53:31.305Z,207.80
2023-02-16T17:55:59.612Z,206.32
2023-02-16T17:58:27.569Z,200.38
2023-02-16T18:00:55.746Z,201.82
2023-02-16T18:03:25.312Z,205.55
2023-02-16T18:05:54.812Z,202.30
2023-02-16T18:08:22.828Z,202.75
2023-02-16T18:11:01.842Z,205.88
2023-02-16T18:13:30.428Z,203.43
2023-02-16T18:16:01.164Z,205.40
2023-02-16T18:18:29.387Z,208.27
2023-02-16T18:20:58.757Z,214.27
2023-02-16T18:23:26.723Z,205.07
2023-02-16T18:25:55.237Z,207.52
2023-02-16T18:28:32.726Z,213.65
2023-02-16T18:31:02.029Z,202.02
2023-02-16T18:33:30.085Z,202.60
2023-02-16T18:35:59.664Z,202.18
2023-02-16T18:38:28.368Z,204.95
2023-02-16T18:40:57.057Z,209.13
2023-02-16T18:43:25.949Z,203.13
2023-02-16T18:45:53.971Z,203.73
2023-02-16T18:48:22.045Z,202.43
2023-02-16T18:50:50.334Z,200.75
2023-02-16T18:53:19.631Z,200.10
2023-02-16T18:55:47.670Z,205.93
2023-02-16T18:58:16.620Z,204.85
2023-02-16T19:00:45.036Z,202.60
2023-02-16T19:03:13.439Z,197.32
2023-02-16T19:05:41.931Z,197.68
2023-02-16T19:08:10.608Z,204.63
2023-02-16T19:10:40.309Z,202.60
2023-02-16T19:13:08.274Z,195.60
2023-02-16T19:15:37.279Z,198.82
2023-02-16T19:18:05.781Z,204.18
2023-02-16T19:20:33.959Z,198.07
2023-02-16T19:23:01.857Z,202.00
2023-02-16T19:25:31.234Z,203.20
2023-02-16T19:28:00.558Z,202.57
2023-02-16T19:30:28.866Z,199.50
2023-02-16T19:32:57.239Z,207.40
2023-02-16T19:35:25.450Z,209.10
2023-02-16T19:37:53.756Z,205.32
2023-02-16T19:40:21.919Z,198.43
2023-02-16T19:42:50.312Z,202.35
2023-02-16T19:45:20.726Z,197.00
2023-02-16T19:47:51.091Z,200.63
2023-02-16T19:50:19.699Z,201.30
2023-02-16T19:52:48.386Z,193.88
2023-02-16T19:55:16.765Z,200.40
2023-02-16T19:57:45.112Z,202.35
2023-02-16T20:00:14.902Z,199.00
2023-02-16T20:02:44.364Z,197.18
2023-02-16T20:05:13.492Z,201.05
2023-02-16T20:07:41.537Z,202.20
2023-02-16T20:10:10.383Z,208.23
2023-02-16T20:12:38.363Z,198.73
2023-02-16T20:15:07.248Z,201.18
2023-02-16T20:17:35.224Z,202.55
2023-02-16T20:20:05.421Z,205.50
2023-02-16T20:22:33.398Z,195.38
2023-02-16T20:25:02.389Z,199.27
2023-02-16T20:27:30.487Z,196.15
2023-02-16T20:29:58.691Z,209.07
2023-02-16T20:32:28.216Z,202.95
2023-02-16T20:34:56.654Z,194.23
2023-02-16T20:37:26.186Z,199.43
2023-02-16T20:39:54.455Z,207.50
2023-02-16T20:42:22.557Z,194.40
2023-02-16T20:44:50.574Z,196.43
2023-02-16T20:47:18.671Z,197.07
2023-02-16T20:49:46.933Z,206.13
2023-02-16T20:52:15.170Z,200.13
2023-02-16T20:54:44.612Z,202.50
2023-02-16T20:57:25.861Z,199.50
2023-02-16T20:59:55.078Z,207.43
2023-02-16T21:02:23.357Z,196.73
2023-02-16T21:04:51.389Z,204.85
2023-02-16T21:07:19.442Z,203.68
2023-02-16T21:09:48.908Z,204.30
2023-02-16T21:12:17.063Z,202.25
2023-02-16T21:14:45.321Z,205.63
2023-02-16T21:17:13.339Z,202.15
2023-02-16T21:19:41.301Z,207.32
2023-02-16T21:22:10.566Z,209.15
2023-02-16T21:24:40.639Z,202.75
2023-02-16T21:27:10.776Z,208.43
2023-02-16T21:29:39.364Z,220.85
2023-02-16T21:32:07.844Z,216.20
2023-02-16T21:34:36.759Z,221.60
2023-02-16T21:37:05.261Z,226.68
2023-02-16T21:39:47.243Z,219.75
2023-02-16T21:42:16.586Z,222.77
2023-02-16T21:44:44.539Z,221.82
2023-02-16T21:47:31.241Z,225.20
2023-02-16T21:50:00.717Z,221.73
2023-02-16T21:52:30.220Z,224.20
2023-02-16T21:55:15.775Z,232.80
2023-02-16T21:57:45.145Z,216.70
2023-02-16T22:00:15.847Z,227.07
2023-02-16T22:02:44.645Z,222.02
2023-02-16T22:05:14.095Z,210.55
2023-02-16T22:07:42.150Z,218.60
2023-02-16T22:10:11.105Z,229.88
2023-02-16T22:12:39.056Z,224.05
2023-02-16T22:15:08.876Z,228.55
2023-02-16T22:17:36.827Z,226.65
2023-02-16T22:20:05.724Z,230.65
2023-02-16T22:22:34.002Z,211.60
2023-02-16T22:25:02.187Z,226.68
2023-02-16T22:27:30.182Z,227.02
2023-02-16T22:29:58.182Z,206.30
2023-02-16T22:32:32.309Z,204.60
2023-02-16T22:35:01.800Z,212.02
2023-02-16T22:37:29.792Z,204.77
2023-02-16T22:39:57.725Z,220.57
2023-02-16T22:42:26.031Z,214.07
2023-02-16T22:44:54.343Z,219.10
2023-02-16T22:47:22.711Z,212.68
2023-02-16T22:49:52.976Z,209.38
2023-02-16T22:52:20.979Z,210.02
2023-02-16T22:54:51.398Z,219.40
2023-02-16T22:57:19.751Z,237.52
2023-02-16T22:59:47.714Z,230.38
2023-02-16T23:02:15.887Z,230.15
2023-02-16T23:04:43.821Z,229.30
2023-02-16T23:07:13.279Z,227.10
2023-02-16T23:09:41.307Z,231.85
2023-02-16T23:12:09.365Z,214.57
2023-02-16T23:14:38.821Z,225.18
2023-02-16T23:17:06.829Z,237.27
2023-02-16T23:19:34.753Z,227.02
2023-02-16T23:22:02.708Z,219.50
2023-02-16T23:24:31.998Z,228.68
2023-02-16T23:27:00.254Z,231.27
2023-02-16T23:29:28.782Z,214.95
2023-02-16T23:31:56.904Z,247.30
2023-02-16T23:34:24.920Z,234.27
2023-02-16T23:36:52.901Z,237.85
2023-02-16T23:39:20.838Z,239.13
2023-02-16T23:41:50.200Z,234.27
2023-02-16T23:44:18.544Z,239.32
2023-02-16T23:46:46.540Z,222.35
2023-02-16T23:49:14.607Z,234.07
2023-02-16T23:51:42.580Z,233.00
2023-02-16T23:54:11.536Z,230.13
2023-02-16T23:56:41.282Z,213.57
2023-02-16T23:59:10.865Z,228.38
